sensor_id;sensor_type;location;lat;lon;timestamp;P1;durP1;ratioP1;P2;durP2;ratioP2
10945;SDS011;5525;42.648;23.368;2023-02-18T00:02:20;16.88;;;9.00;;
10945;SDS011;5525;42.648;23.368;2023-02-18T00:04:48;16.27;;;9.75;;
10945;SDS011;5525;42.648;23.368;2023-02-18T00:07:15;13.02;;;8.18;;
10945;SDS011;5525;42.648;23.368;2023-02-18T00:09:41;14.95;;;9.05;;
10945;SDS011;5525;42.648;23.368;2023-02-18T00:12:08;16.85;;;10.30;;
10945;SDS011;5525;42.648;23.368;2023-02-18T00:14:35;14.23;;;8.77;;
10945;SDS011;5525;42.648;23.368;2023-02-18T00:17:01;19.58;;;12.35;;
10945;SDS011;5525;42.648;23.368;2023-02-18T00:19:28;22.38;;;12.07;;
10945;SDS011;5525;42.648;23.368;2023-02-18T00:21:56;19.67;;;12.85;;
10945;SDS011;5525;42.648;23.368;2023-02-18T00:24:23;17.77;;;10.70;;
10945;SDS011;5525;42.648;23.368;2023-02-18T00:26:49;20.27;;;12.02;;
10945;SDS011;5525;42.648;23.368;2023-02-18T00:29:17;21.63;;;12.25;;
10945;SDS011;5525;42.648;23.368;2023-02-18T00:31:44;21.35;;;12.38;;
10945;SDS011;5525;42.648;23.368;2023-02-18T00:34:12;21.95;;;12.85;;
10945;SDS011;5525;42.648;23.368;2023-02-18T00:36:39;17.08;;;10.88;;
10945;SDS011;5525;42.648;23.368;2023-02-18T00:39:08;19.17;;;11.18;;
10945;SDS011;5525;42.648;23.368;2023-02-18T00:41:36;18.02;;;10.60;;
10945;SDS011;5525;42.648;23.368;2023-02-18T00:44:04;17.67;;;10.82;;
10945;SDS011;5525;42.648;23.368;2023-02-18T00:46:31;20.75;;;12.02;;
10945;SDS011;5525;42.648;23.368;2023-02-18T00:48:58;15.45;;;8.98;;
10945;SDS011;5525;42.648;23.368;2023-02-18T00:51:25;16.35;;;9.75;;
10945;SDS011;5525;42.648;23.368;2023-02-18T00:53:52;16.52;;;9.68;;
10945;SDS011;5525;42.648;23.368;2023-02-18T00:56:20;17.40;;;9.85;;
10945;SDS011;5525;42.648;23.368;2023-02-18T00:58:47;16.65;;;10.20;;
10945;SDS011;5525;42.648;23.368;2023-02-18T01:01:14;16.95;;;9.45;;
10945;SDS011;5525;42.648;23.368;2023-02-18T01:03:41;14.45;;;9.48;;
10945;SDS011;5525;42.648;23.368;2023-02-18T01:06:09;14.10;;;8.73;;
10945;SDS011;5525;42.648;23.368;2023-02-18T01:08:37;15.90;;;9.05;;
10945;SDS011;5525;42.648;23.368;2023-02-18T01:11:06;17.25;;;9.63;;
10945;SDS011;5525;42.648;23.368;2023-02-18T01:13:35;16.60;;;9.43;;
10945;SDS011;5525;42.648;23.368;2023-02-18T01:16:02;12.52;;;8.00;;
10945;SDS011;5525;42.648;23.368;2023-02-18T01:18:30;14.57;;;8.85;;
10945;SDS011;5525;42.648;23.368;2023-02-18T01:20:57;12.32;;;8.13;;
10945;SDS011;5525;42.648;23.368;2023-02-18T01:23:25;17.80;;;9.05;;
10945;SDS011;5525;42.648;23.368;2023-02-18T01:25:52;15.45;;;9.07;;
10945;SDS011;5525;42.648;23.368;2023-02-18T01:28:20;15.93;;;9.27;;
10945;SDS011;5525;42.648;23.368;2023-02-18T01:30:50;12.80;;;8.70;;
10945;SDS011;5525;42.648;23.368;2023-02-18T01:33:18;16.60;;;9.07;;
10945;SDS011;5525;42.648;23.368;2023-02-18T01:35:45;14.38;;;8.30;;
10945;SDS011;5525;42.648;23.368;2023-02-18T01:38:12;15.63;;;8.82;;
10945;SDS011;5525;42.648;23.368;2023-02-18T01:40:43;13.63;;;8.45;;
10945;SDS011;5525;42.648;23.368;2023-02-18T01:43:13;12.85;;;8.32;;
10945;SDS011;5525;42.648;23.368;2023-02-18T01:45:54;12.77;;;8.48;;
10945;SDS011;5525;42.648;23.368;2023-02-18T01:48:26;13.02;;;8.23;;
10945;SDS011;5525;42.648;23.368;2023-02-18T01:50:56;15.93;;;9.07;;
10945;SDS011;5525;42.648;23.368;2023-02-18T01:53:27;16.35;;;8.93;;
10945;SDS011;5525;42.648;23.368;2023-02-18T01:55:58;14.85;;;8.90;;
10945;SDS011;5525;42.648;23.368;2023-02-18T01:58:28;14.75;;;8.90;;
10945;SDS011;5525;42.648;23.368;2023-02-18T02:00:56;14.75;;;8.65;;
10945;SDS011;5525;42.648;23.368;2023-02-18T02:03:23;15.13;;;8.68;;
10945;SDS011;5525;42.648;23.368;2023-02-18T02:05:50;12.98;;;8.40;;
10945;SDS011;5525;42.648;23.368;2023-02-18T02:08:16;15.68;;;8.90;;
10945;SDS011;5525;42.648;23.368;2023-02-18T02:11:02;13.88;;;9.00;;
10945;SDS011;5525;42.648;23.368;2023-02-18T02:13:43;15.88;;;9.18;;
10945;SDS011;5525;42.648;23.368;2023-02-18T02:16:25;15.27;;;9.95;;
10945;SDS011;5525;42.648;23.368;2023-02-18T02:19:03;14.15;;;8.68;;
10945;SDS011;5525;42.648;23.368;2023-02-18T02:24:49;14.80;;;8.80;;
10945;SDS011;5525;42.648;23.368;2023-02-18T02:27:28;15.70;;;9.48;;
10945;SDS011;5525;42.648;23.368;2023-02-18T02:33:23;15.43;;;8.40;;
10945;SDS011;5525;42.648;23.368;2023-02-18T02:36:09;15.07;;;8.75;;
10945;SDS011;5525;42.648;23.368;2023-02-18T02:38:39;13.98;;;8.70;;
10945;SDS011;5525;42.648;23.368;2023-02-18T02:41:17;14.82;;;8.68;;
10945;SDS011;5525;42.648;23.368;2023-02-18T02:44:01;15.00;;;8.63;;
10945;SDS011;5525;42.648;23.368;2023-02-18T02:46:37;13.82;;;8.93;;
10945;SDS011;5525;42.648;23.368;2023-02-18T02:49:11;14.93;;;8.60;;
10945;SDS011;5525;42.648;23.368;2023-02-18T02:51:47;13.32;;;8.18;;
10945;SDS011;5525;42.648;23.368;2023-02-18T02:54:20;12.85;;;8.25;;
10945;SDS011;5525;42.648;23.368;2023-02-18T02:56:49;14.65;;;8.02;;
10945;SDS011;5525;42.648;23.368;2023-02-18T02:59:17;12.57;;;7.90;;
10945;SDS011;5525;42.648;23.368;2023-02-18T03:01:56;11.20;;;7.93;;
10945;SDS011;5525;42.648;23.368;2023-02-18T03:04:50;16.20;;;10.30;;
10945;SDS011;5525;42.648;23.368;2023-02-18T03:07:32;15.48;;;9.50;;
10945;SDS011;5525;42.648;23.368;2023-02-18T03:10:24;12.77;;;9.18;;
10945;SDS011;5525;42.648;23.368;2023-02-18T03:13:01;13.55;;;8.55;;
10945;SDS011;5525;42.648;23.368;2023-02-18T03:15:36;16.63;;;7.75;;
10945;SDS011;5525;42.648;23.368;2023-02-18T03:18:10;14.73;;;8.05;;
10945;SDS011;5525;42.648;23.368;2023-02-18T03:20:49;12.35;;;7.95;;
10945;SDS011;5525;42.648;23.368;2023-02-18T03:23:22;11.07;;;7.00;;
10945;SDS011;5525;42.648;23.368;2023-02-18T03:25:53;14.80;;;8.32;;
10945;SDS011;5525;42.648;23.368;2023-02-18T03:28:23;14.43;;;9.55;;
10945;SDS011;5525;42.648;23.368;2023-02-18T03:30:57;16.77;;;9.32;;
10945;SDS011;5525;42.648;23.368;2023-02-18T03:33:29;12.82;;;9.00;;
10945;SDS011;5525;42.648;23.368;2023-02-18T03:36:05;18.17;;;10.10;;
10945;SDS011;5525;42.648;23.368;2023-02-18T03:38:36;15.15;;;9.00;;
10945;SDS011;5525;42.648;23.368;2023-02-18T03:41:05;15.50;;;8.90;;
10945;SDS011;5525;42.648;23.368;2023-02-18T03:43:32;17.17;;;9.57;;
10945;SDS011;5525;42.648;23.368;2023-02-18T03:45:59;16.58;;;9.13;;
10945;SDS011;5525;42.648;23.368;2023-02-18T03:48:26;15.27;;;9.00;;
10945;SDS011;5525;42.648;23.368;2023-02-18T03:50:53;13.75;;;8.88;;
10945;SDS011;5525;42.648;23.368;2023-02-18T03:53:20;17.67;;;10.00;;
10945;SDS011;5525;42.648;23.368;2023-02-18T03:55:48;16.13;;;10.40;;
10945;SDS011;5525;42.648;23.368;2023-02-18T03:58:15;15.52;;;9.57;;
10945;SDS011;5525;42.648;23.368;2023-02-18T04:00:41;15.27;;;9.88;;
10945;SDS011;5525;42.648;23.368;2023-02-18T04:03:08;15.50;;;9.20;;
10945;SDS011;5525;42.648;23.368;2023-02-18T04:05:35;15.40;;;9.70;;
10945;SDS011;5525;42.648;23.368;2023-02-18T04:08:02;15.73;;;9.18;;
10945;SDS011;5525;42.648;23.368;2023-02-18T04:10:29;16.98;;;9.43;;
10945;SDS011;5525;42.648;23.368;2023-02-18T04:12:57;14.65;;;8.73;;
10945;SDS011;5525;42.648;23.368;2023-02-18T04:15:24;17.73;;;9.05;;
10945;SDS011;5525;42.648;23.368;2023-02-18T04:17:51;15.10;;;9.05;;
10945;SDS011;5525;42.648;23.368;2023-02-18T04:20:18;15.38;;;9.02;;
10945;SDS011;5525;42.648;23.368;2023-02-18T04:22:46;16.33;;;9.02;;
10945;SDS011;5525;42.648;23.368;2023-02-18T04:25:13;13.50;;;8.88;;
10945;SDS011;5525;42.648;23.368;2023-02-18T04:27:40;15.40;;;9.90;;
10945;SDS011;5525;42.648;23.368;2023-02-18T04:30:08;13.50;;;8.48;;
10945;SDS011;5525;42.648;23.368;2023-02-18T04:32:36;14.38;;;8.52;;
10945;SDS011;5525;42.648;23.368;2023-02-18T04:35:03;14.90;;;8.00;;
10945;SDS011;5525;42.648;23.368;2023-02-18T04:37:30;10.70;;;7.47;;
10945;SDS011;5525;42.648;23.368;2023-02-18T04:39:57;11.13;;;6.95;;
10945;SDS011;5525;42.648;23.368;2023-02-18T04:42:24;9.85;;;6.60;;
10945;SDS011;5525;42.648;23.368;2023-02-18T04:44:51;9.85;;;5.85;;
10945;SDS011;5525;42.648;23.368;2023-02-18T04:47:19;11.07;;;5.85;;
10945;SDS011;5525;42.648;23.368;2023-02-18T04:49:46;11.57;;;6.47;;
10945;SDS011;5525;42.648;23.368;2023-02-18T04:52:13;14.10;;;8.27;;
10945;SDS011;5525;42.648;23.368;2023-02-18T04:54:39;15.75;;;9.27;;
10945;SDS011;5525;42.648;23.368;2023-02-18T04:57:06;17.20;;;9.23;;
10945;SDS011;5525;42.648;23.368;2023-02-18T04:59:33;15.98;;;9.05;;
10945;SDS011;5525;42.648;23.368;2023-02-18T05:01:59;14.82;;;8.85;;
10945;SDS011;5525;42.648;23.368;2023-02-18T05:04:27;14.50;;;8.60;;
10945;SDS011;5525;42.648;23.368;2023-02-18T05:06:54;11.63;;;7.15;;
10945;SDS011;5525;42.648;23.368;2023-02-18T05:09:21;15.52;;;8.30;;
10945;SDS011;5525;42.648;23.368;2023-02-18T05:11:49;12.95;;;7.82;;
10945;SDS011;5525;42.648;23.368;2023-02-18T05:14:16;14.50;;;8.18;;
10945;SDS011;5525;42.648;23.368;2023-02-18T05:16:42;14.63;;;8.50;;
10945;SDS011;5525;42.648;23.368;2023-02-18T05:19:09;14.82;;;8.43;;
10945;SDS011;5525;42.648;23.368;2023-02-18T05:21:41;16.92;;;8.90;;
10945;SDS011;5525;42.648;23.368;2023-02-18T05:24:08;15.20;;;8.85;;
10945;SDS011;5525;42.648;23.368;2023-02-18T05:26:35;17.25;;;10.13;;
10945;SDS011;5525;42.648;23.368;2023-02-18T05:29:02;16.08;;;9.70;;
10945;SDS011;5525;42.648;23.368;2023-02-18T05:31:29;17.10;;;9.75;;
10945;SDS011;5525;42.648;23.368;2023-02-18T05:33:56;14.07;;;9.68;;
10945;SDS011;5525;42.648;23.368;2023-02-18T05:36:23;16.35;;;9.13;;
10945;SDS011;5525;42.648;23.368;2023-02-18T05:38:53;15.77;;;9.30;;
10945;SDS011;5525;42.648;23.368;2023-02-18T05:41:20;21.25;;;9.80;;
10945;SDS011;5525;42.648;23.368;2023-02-18T05:43:46;16.58;;;9.23;;
10945;SDS011;5525;42.648;23.368;2023-02-18T05:46:31;14.90;;;8.90;;
10945;SDS011;5525;42.648;23.368;2023-02-18T05:48:57;14.60;;;8.85;;
10945;SDS011;5525;42.648;23.368;2023-02-18T05:51:24;19.35;;;9.15;;
10945;SDS011;5525;42.648;23.368;2023-02-18T05:53:52;17.33;;;9.30;;
10945;SDS011;5525;42.648;23.368;2023-02-18T05:56:19;15.32;;;9.32;;
10945;SDS011;5525;42.648;23.368;2023-02-18T05:58:46;17.05;;;9.93;;
10945;SDS011;5525;42.648;23.368;2023-02-18T06:01:13;15.05;;;9.65;;
10945;SDS011;5525;42.648;23.368;2023-02-18T06:03:40;15.65;;;8.95;;
10945;SDS011;5525;42.648;23.368;2023-02-18T06:06:07;18.88;;;9.88;;
10945;SDS011;5525;42.648;23.368;2023-02-18T06:08:33;18.17;;;10.25;;
10945;SDS011;5525;42.648;23.368;2023-02-18T06:11:02;16.00;;;9.43;;
10945;SDS011;5525;42.648;23.368;2023-02-18T06:13:29;15.57;;;9.07;;
10945;SDS011;5525;42.648;23.368;2023-02-18T06:15:56;13.80;;;9.07;;
10945;SDS011;5525;42.648;23.368;2023-02-18T06:18:22;18.73;;;9.98;;
10945;SDS011;5525;42.648;23.368;2023-02-18T06:20:49;13.68;;;9.10;;
10945;SDS011;5525;42.648;23.368;2023-02-18T06:23:16;17.27;;;10.60;;
10945;SDS011;5525;42.648;23.368;2023-02-18T06:25:42;16.23;;;9.75;;
10945;SDS011;5525;42.648;23.368;2023-02-18T06:28:10;18.40;;;10.20;;
10945;SDS011;5525;42.648;23.368;2023-02-18T06:30:37;15.00;;;9.52;;
10945;SDS011;5525;42.648;23.368;2023-02-18T06:33:04;14.25;;;8.88;;
10945;SDS011;5525;42.648;23.368;2023-02-18T06:35:30;16.55;;;9.65;;
10945;SDS011;5525;42.648;23.368;2023-02-18T06:37:57;19.15;;;10.80;;
10945;SDS011;5525;42.648;23.368;2023-02-18T06:40:24;15.18;;;9.10;;
10945;SDS011;5525;42.648;23.368;2023-02-18T06:42:51;13.35;;;8.35;;
10945;SDS011;5525;42.648;23.368;2023-02-18T06:45:19;14.98;;;8.65;;
10945;SDS011;5525;42.648;23.368;2023-02-18T06:47:46;13.75;;;8.38;;
10945;SDS011;5525;42.648;23.368;2023-02-18T06:50:13;22.15;;;9.45;;
10945;SDS011;5525;42.648;23.368;2023-02-18T06:52:40;18.80;;;8.90;;
10945;SDS011;5525;42.648;23.368;2023-02-18T06:55:07;22.08;;;9.02;;
10945;SDS011;5525;42.648;23.368;2023-02-18T06:57:34;16.90;;;8.82;;
10945;SDS011;5525;42.648;23.368;2023-02-18T07:00:01;15.88;;;9.43;;
10945;SDS011;5525;42.648;23.368;2023-02-18T07:02:29;16.42;;;9.35;;
10945;SDS011;5525;42.648;23.368;2023-02-18T07:04:56;15.25;;;9.55;;
10945;SDS011;5525;42.648;23.368;2023-02-18T07:07:22;17.17;;;10.20;;
10945;SDS011;5525;42.648;23.368;2023-02-18T07:09:49;18.35;;;9.95;;
10945;SDS011;5525;42.648;23.368;2023-02-18T07:12:16;16.08;;;9.68;;
10945;SDS011;5525;42.648;23.368;2023-02-18T07:14:44;14.68;;;9.80;;
10945;SDS011;5525;42.648;23.368;2023-02-18T07:17:11;25.95;;;11.25;;
10945;SDS011;5525;42.648;23.368;2023-02-18T07:19:40;16.30;;;9.70;;
10945;SDS011;5525;42.648;23.368;2023-02-18T07:22:07;18.08;;;10.27;;
10945;SDS011;5525;42.648;23.368;2023-02-18T07:24:33;16.50;;;9.43;;
10945;SDS011;5525;42.648;23.368;2023-02-18T07:27:00;17.67;;;9.63;;
10945;SDS011;5525;42.648;23.368;2023-02-18T07:29:27;13.40;;;9.60;;
10945;SDS011;5525;42.648;23.368;2023-02-18T07:31:53;15.82;;;9.48;;
10945;SDS011;5525;42.648;23.368;2023-02-18T07:34:21;17.02;;;9.38;;
10945;SDS011;5525;42.648;23.368;2023-02-18T07:36:49;14.90;;;9.60;;
10945;SDS011;5525;42.648;23.368;2023-02-18T07:39:16;15.07;;;8.82;;
10945;SDS011;5525;42.648;23.368;2023-02-18T07:41:44;13.60;;;9.15;;
10945;SDS011;5525;42.648;23.368;2023-02-18T07:44:12;17.05;;;9.82;;
10945;SDS011;5525;42.648;23.368;2023-02-18T07:46:39;15.65;;;10.02;;
10945;SDS011;5525;42.648;23.368;2023-02-18T07:49:06;14.82;;;10.07;;
10945;SDS011;5525;42.648;23.368;2023-02-18T07:51:32;17.70;;;10.90;;
10945;SDS011;5525;42.648;23.368;2023-02-18T07:54:01;27.52;;;12.00;;
10945;SDS011;5525;42.648;23.368;2023-02-18T07:56:27;22.02;;;11.35;;
10945;SDS011;5525;42.648;23.368;2023-02-18T07:58:54;23.83;;;12.68;;
10945;SDS011;5525;42.648;23.368;2023-02-18T08:01:21;19.85;;;11.48;;
10945;SDS011;5525;42.648;23.368;2023-02-18T08:03:48;19.48;;;11.20;;
10945;SDS011;5525;42.648;23.368;2023-02-18T08:06:19;22.67;;;11.02;;
10945;SDS011;5525;42.648;23.368;2023-02-18T08:08:47;19.17;;;11.77;;
10945;SDS011;5525;42.648;23.368;2023-02-18T08:11:16;18.83;;;10.73;;
10945;SDS011;5525;42.648;23.368;2023-02-18T08:13:43;19.00;;;10.10;;
10945;SDS011;5525;42.648;23.368;2023-02-18T08:16:09;21.30;;;10.13;;
10945;SDS011;5525;42.648;23.368;2023-02-18T08:18:37;19.88;;;10.85;;
10945;SDS011;5525;42.648;23.368;2023-02-18T08:21:03;18.27;;;10.90;;
10945;SDS011;5525;42.648;23.368;2023-02-18T08:23:30;15.73;;;9.70;;
10945;SDS011;5525;42.648;23.368;2023-02-18T08:25:57;17.60;;;9.32;;
10945;SDS011;5525;42.648;23.368;2023-02-18T08:28:26;16.35;;;9.55;;
10945;SDS011;5525;42.648;23.368;2023-02-18T08:30:53;17.85;;;10.20;;
10945;SDS011;5525;42.648;23.368;2023-02-18T08:33:20;16.05;;;9.38;;
10945;SDS011;5525;42.648;23.368;2023-02-18T08:35:48;17.08;;;11.65;;
10945;SDS011;5525;42.648;23.368;2023-02-18T08:38:16;17.73;;;10.27;;
10945;SDS011;5525;42.648;23.368;2023-02-18T08:40:43;17.38;;;10.23;;
10945;SDS011;5525;42.648;23.368;2023-02-18T08:43:10;14.30;;;9.60;;
10945;SDS011;5525;42.648;23.368;2023-02-18T08:45:39;17.48;;;10.15;;
10945;SDS011;5525;42.648;23.368;2023-02-18T08:48:07;17.42;;;9.70;;
10945;SDS011;5525;42.648;23.368;2023-02-18T08:50:35;15.32;;;9.98;;
10945;SDS011;5525;42.648;23.368;2023-02-18T08:53:02;17.92;;;10.57;;
10945;SDS011;5525;42.648;23.368;2023-02-18T08:55:28;19.92;;;10.57;;
10945;SDS011;5525;42.648;23.368;2023-02-18T08:57:55;17.58;;;10.45;;
10945;SDS011;5525;42.648;23.368;2023-02-18T09:00:22;16.02;;;10.05;;
10945;SDS011;5525;42.648;23.368;2023-02-18T09:02:50;14.77;;;10.50;;
10945;SDS011;5525;42.648;23.368;2023-02-18T09:05:17;17.10;;;10.32;;
10945;SDS011;5525;42.648;23.368;2023-02-18T09:07:44;21.42;;;10.65;;
10945;SDS011;5525;42.648;23.368;2023-02-18T09:10:11;24.88;;;11.18;;
10945;SDS011;5525;42.648;23.368;2023-02-18T09:12:37;19.23;;;11.20;;
10945;SDS011;5525;42.648;23.368;2023-02-18T09:15:04;16.13;;;10.93;;
10945;SDS011;5525;42.648;23.368;2023-02-18T09:17:32;15.30;;;10.57;;
10945;SDS011;5525;42.648;23.368;2023-02-18T09:20:00;23.05;;;12.52;;
10945;SDS011;5525;42.648;23.368;2023-02-18T09:22:32;22.45;;;11.55;;
10945;SDS011;5525;42.648;23.368;2023-02-18T09:24:59;17.65;;;11.13;;
10945;SDS011;5525;42.648;23.368;2023-02-18T09:27:26;19.77;;;11.70;;
10945;SDS011;5525;42.648;23.368;2023-02-18T09:29:53;16.67;;;11.68;;
10945;SDS011;5525;42.648;23.368;2023-02-18T09:32:20;24.67;;;12.05;;
10945;SDS011;5525;42.648;23.368;2023-02-18T09:34:46;17.02;;;11.38;;
10945;SDS011;5525;42.648;23.368;2023-02-18T09:37:14;16.85;;;11.15;;
10945;SDS011;5525;42.648;23.368;2023-02-18T09:39:41;33.25;;;11.35;;
10945;SDS011;5525;42.648;23.368;2023-02-18T09:42:10;17.23;;;10.50;;
10945;SDS011;5525;42.648;23.368;2023-02-18T09:44:42;21.90;;;10.93;;
10945;SDS011;5525;42.648;23.368;2023-02-18T09:47:13;20.83;;;10.52;;
10945;SDS011;5525;42.648;23.368;2023-02-18T09:49:43;18.35;;;10.75;;
10945;SDS011;5525;42.648;23.368;2023-02-18T09:52:18;15.98;;;10.15;;
10945;SDS011;5525;42.648;23.368;2023-02-18T09:54:48;15.27;;;10.05;;
10945;SDS011;5525;42.648;23.368;2023-02-18T09:57:17;16.05;;;10.57;;
10945;SDS011;5525;42.648;23.368;2023-02-18T09:59:51;20.92;;;10.77;;
10945;SDS011;5525;42.648;23.368;2023-02-18T10:02:23;21.25;;;10.35;;
10945;SDS011;5525;42.648;23.368;2023-02-18T10:04:50;15.68;;;10.57;;
10945;SDS011;5525;42.648;23.368;2023-02-18T10:07:20;15.18;;;10.48;;
10945;SDS011;5525;42.648;23.368;2023-02-18T10:09:51;27.77;;;11.45;;
10945;SDS011;5525;42.648;23.368;2023-02-18T10:12:20;15.73;;;11.00;;
10945;SDS011;5525;42.648;23.368;2023-02-18T10:14:48;19.92;;;11.32;;
10945;SDS011;5525;42.648;23.368;2023-02-18T10:17:18;19.88;;;11.77;;
10945;SDS011;5525;42.648;23.368;2023-02-18T10:19:47;16.30;;;11.30;;
10945;SDS011;5525;42.648;23.368;2023-02-18T10:22:15;40.50;;;12.63;;
10945;SDS011;5525;42.648;23.368;2023-02-18T10:24:46;28.80;;;11.95;;
10945;SDS011;5525;42.648;23.368;2023-02-18T10:27:17;16.05;;;11.63;;
10945;SDS011;5525;42.648;23.368;2023-02-18T10:29:49;20.67;;;12.27;;
10945;SDS011;5525;42.648;23.368;2023-02-18T10:32:18;19.08;;;12.32;;
10945;SDS011;5525;42.648;23.368;2023-02-18T10:34:50;17.08;;;11.68;;
10945;SDS011;5525;42.648;23.368;2023-02-18T10:40:20;18.40;;;11.32;;
10945;SDS011;5525;42.648;23.368;2023-02-18T10:42:58;18.17;;;12.57;;
10945;SDS011;5525;42.648;23.368;2023-02-18T10:45:32;16.85;;;10.68;;
10945;SDS011;5525;42.648;23.368;2023-02-18T10:48:15;17.35;;;11.20;;
10945;SDS011;5525;42.648;23.368;2023-02-18T10:51:01;23.90;;;12.80;;
10945;SDS011;5525;42.648;23.368;2023-02-18T10:53:38;20.15;;;11.73;;
10945;SDS011;5525;42.648;23.368;2023-02-18T10:56:12;25.20;;;12.32;;
10945;SDS011;5525;42.648;23.368;2023-02-18T10:59:00;15.32;;;10.63;;
10945;SDS011;5525;42.648;23.368;2023-02-18T11:01:30;18.90;;;11.35;;
10945;SDS011;5525;42.648;23.368;2023-02-18T11:04:03;13.60;;;10.98;;
10945;SDS011;5525;42.648;23.368;2023-02-18T11:06:33;21.58;;;10.57;;
10945;SDS011;5525;42.648;23.368;2023-02-18T11:09:05;16.42;;;10.88;;
10945;SDS011;5525;42.648;23.368;2023-02-18T11:11:35;14.60;;;10.48;;
10945;SDS011;5525;42.648;23.368;2023-02-18T11:14:05;12.95;;;10.45;;
10945;SDS011;5525;42.648;23.368;2023-02-18T11:16:36;15.00;;;10.40;;
10945;SDS011;5525;42.648;23.368;2023-02-18T11:19:08;15.52;;;10.13;;
10945;SDS011;5525;42.648;23.368;2023-02-18T11:22:05;18.35;;;10.38;;
10945;SDS011;5525;42.648;23.368;2023-02-18T11:24:35;14.60;;;10.45;;
10945;SDS011;5525;42.648;23.368;2023-02-18T11:27:08;12.70;;;9.68;;
10945;SDS011;5525;42.648;23.368;2023-02-18T11:29:36;13.98;;;10.40;;
10945;SDS011;5525;42.648;23.368;2023-02-18T11:32:04;16.65;;;10.23;;
10945;SDS011;5525;42.648;23.368;2023-02-18T11:34:37;15.40;;;9.77;;
10945;SDS011;5525;42.648;23.368;2023-02-18T11:37:10;17.45;;;9.85;;
10945;SDS011;5525;42.648;23.368;2023-02-18T11:39:40;14.45;;;10.20;;
10945;SDS011;5525;42.648;23.368;2023-02-18T11:42:12;15.63;;;9.85;;
10945;SDS011;5525;42.648;23.368;2023-02-18T11:44:42;15.10;;;10.05;;
10945;SDS011;5525;42.648;23.368;2023-02-18T11:47:20;11.48;;;8.82;;
10945;SDS011;5525;42.648;23.368;2023-02-18T11:49:58;9.13;;;7.47;;
10945;SDS011;5525;42.648;23.368;2023-02-18T11:52:29;20.42;;;8.27;;
10945;SDS011;5525;42.648;23.368;2023-02-18T11:55:00;7.97;;;5.82;;
10945;SDS011;5525;42.648;23.368;2023-02-18T11:57:30;6.13;;;4.65;;
10945;SDS011;5525;42.648;23.368;2023-02-18T11:59:59;8.63;;;4.53;;
10945;SDS011;5525;42.648;23.368;2023-02-18T12:02:29;7.22;;;5.07;;
10945;SDS011;5525;42.648;23.368;2023-02-18T12:05:00;6.60;;;4.72;;
10945;SDS011;5525;42.648;23.368;2023-02-18T12:07:29;8.23;;;4.63;;
10945;SDS011;5525;42.648;23.368;2023-02-18T12:10:09;7.18;;;4.75;;
10945;SDS011;5525;42.648;23.368;2023-02-18T12:12:43;9.10;;;4.50;;
10945;SDS011;5525;42.648;23.368;2023-02-18T12:15:13;9.02;;;4.60;;
10945;SDS011;5525;42.648;23.368;2023-02-18T12:17:53;8.80;;;5.10;;
10945;SDS011;5525;42.648;23.368;2023-02-18T12:23:30;6.82;;;4.47;;
10945;SDS011;5525;42.648;23.368;2023-02-18T12:26:04;6.78;;;4.10;;
10945;SDS011;5525;42.648;23.368;2023-02-18T12:28:48;21.92;;;5.32;;
10945;SDS011;5525;42.648;23.368;2023-02-18T12:34:28;7.38;;;4.30;;
10945;SDS011;5525;42.648;23.368;2023-02-18T12:37:07;8.13;;;4.63;;
10945;SDS011;5525;42.648;23.368;2023-02-18T12:39:55;7.95;;;4.70;;
10945;SDS011;5525;42.648;23.368;2023-02-18T12:42:41;7.28;;;4.70;;
10945;SDS011;5525;42.648;23.368;2023-02-18T12:45:25;7.50;;;5.13;;
10945;SDS011;5525;42.648;23.368;2023-02-18T12:48:23;7.82;;;4.82;;
10945;SDS011;5525;42.648;23.368;2023-02-18T12:51:06;8.07;;;4.72;;
10945;SDS011;5525;42.648;23.368;2023-02-18T12:53:48;8.50;;;4.32;;
10945;SDS011;5525;42.648;23.368;2023-02-18T12:56:33;8.13;;;4.22;;
10945;SDS011;5525;42.648;23.368;2023-02-18T12:59:32;9.50;;;4.78;;
10945;SDS011;5525;42.648;23.368;2023-02-18T13:02:25;7.32;;;4.32;;
10945;SDS011;5525;42.648;23.368;2023-02-18T13:05:10;8.57;;;2.60;;
10945;SDS011;5525;42.648;23.368;2023-02-18T13:07:49;11.43;;;2.58;;
10945;SDS011;5525;42.648;23.368;2023-02-18T13:10:33;5.30;;;2.50;;
10945;SDS011;5525;42.648;23.368;2023-02-18T13:13:21;7.72;;;2.70;;
10945;SDS011;5525;42.648;23.368;2023-02-18T13:15:52;5.95;;;3.10;;
10945;SDS011;5525;42.648;23.368;2023-02-18T13:18:25;4.53;;;2.42;;
10945;SDS011;5525;42.648;23.368;2023-02-18T13:20:58;5.88;;;2.53;;
10945;SDS011;5525;42.648;23.368;2023-02-18T13:23:29;4.07;;;2.40;;
10945;SDS011;5525;42.648;23.368;2023-02-18T13:26:00;4.90;;;2.67;;
10945;SDS011;5525;42.648;23.368;2023-02-18T13:28:29;3.20;;;2.30;;
10945;SDS011;5525;42.648;23.368;2023-02-18T13:31:04;4.28;;;2.47;;
10945;SDS011;5525;42.648;23.368;2023-02-18T13:33:45;4.43;;;2.88;;
10945;SDS011;5525;42.648;23.368;2023-02-18T13:36:21;4.93;;;2.67;;
10945;SDS011;5525;42.648;23.368;2023-02-18T13:39:00;4.85;;;2.65;;
10945;SDS011;5525;42.648;23.368;2023-02-18T13:41:34;5.43;;;2.80;;
10945;SDS011;5525;42.648;23.368;2023-02-18T13:44:06;5.18;;;2.97;;
10945;SDS011;5525;42.648;23.368;2023-02-18T13:46:46;8.65;;;3.28;;
10945;SDS011;5525;42.648;23.368;2023-02-18T13:49:17;5.18;;;2.70;;
10945;SDS011;5525;42.648;23.368;2023-02-18T13:51:47;9.82;;;4.25;;
10945;SDS011;5525;42.648;23.368;2023-02-18T13:54:17;9.07;;;4.18;;
10945;SDS011;5525;42.648;23.368;2023-02-18T13:56:49;6.38;;;3.88;;
10945;SDS011;5525;42.648;23.368;2023-02-18T13:59:21;7.40;;;4.10;;
10945;SDS011;5525;42.648;23.368;2023-02-18T14:01:53;8.43;;;4.35;;
10945;SDS011;5525;42.648;23.368;2023-02-18T14:07:28;9.60;;;4.80;;
10945;SDS011;5525;42.648;23.368;2023-02-18T14:10:09;7.57;;;4.10;;
10945;SDS011;5525;42.648;23.368;2023-02-18T14:13:00;7.72;;;4.20;;
10945;SDS011;5525;42.648;23.368;2023-02-18T14:15:54;7.45;;;4.78;;
10945;SDS011;5525;42.648;23.368;2023-02-18T14:18:31;6.00;;;3.72;;
10945;SDS011;5525;42.648;23.368;2023-02-18T14:21:04;9.25;;;4.03;;
10945;SDS011;5525;42.648;23.368;2023-02-18T14:23:59;8.68;;;4.95;;
10945;SDS011;5525;42.648;23.368;2023-02-18T14:26:28;7.45;;;4.57;;
10945;SDS011;5525;42.648;23.368;2023-02-18T14:31:53;9.77;;;4.10;;
10945;SDS011;5525;42.648;23.368;2023-02-18T14:37:54;7.70;;;4.68;;
10945;SDS011;5525;42.648;23.368;2023-02-18T14:40:38;10.30;;;6.70;;
10945;SDS011;5525;42.648;23.368;2023-02-18T14:43:31;13.00;;;4.60;;
10945;SDS011;5525;42.648;23.368;2023-02-18T14:46:08;9.65;;;4.20;;
10945;SDS011;5525;42.648;23.368;2023-02-18T14:48:56;8.63;;;4.45;;
10945;SDS011;5525;42.648;23.368;2023-02-18T14:51:36;8.50;;;4.50;;
10945;SDS011;5525;42.648;23.368;2023-02-18T14:54:11;8.02;;;4.43;;
10945;SDS011;5525;42.648;23.368;2023-02-18T14:56:41;6.72;;;4.53;;
10945;SDS011;5525;42.648;23.368;2023-02-18T14:59:17;6.95;;;4.53;;
10945;SDS011;5525;42.648;23.368;2023-02-18T15:01:45;6.28;;;4.30;;
10945;SDS011;5525;42.648;23.368;2023-02-18T15:04:14;9.93;;;5.30;;
10945;SDS011;5525;42.648;23.368;2023-02-18T15:06:41;6.93;;;4.53;;
10945;SDS011;5525;42.648;23.368;2023-02-18T15:09:13;7.55;;;4.85;;
10945;SDS011;5525;42.648;23.368;2023-02-18T15:11:44;6.03;;;4.30;;
10945;SDS011;5525;42.648;23.368;2023-02-18T15:14:15;11.45;;;6.38;;
10945;SDS011;5525;42.648;23.368;2023-02-18T15:16:44;11.82;;;7.07;;
10945;SDS011;5525;42.648;23.368;2023-02-18T15:19:13;13.15;;;5.70;;
10945;SDS011;5525;42.648;23.368;2023-02-18T15:21:43;9.90;;;5.30;;